Time;durP1;ratioP1;P1;durP2;ratioP2;P2;SDS_P1;SDS_P2;PMS_P1;PMS_P2;Temp;Humidity;BMP_temperature;BMP_pressure;BME280_temperature;BME280_humidity;BME280_pressure;Samples;Min_cycle;Max_cycle;Signal;HPM_P1;HPM_P2
2023/06/22 00:00:48;;;;;;;14.60;10.73;;;;;;;23.46;54.93;93776.28;4977233;28;20042;-92
2023/06/22 00:03:13;;;;;;;17.27;11.75;;;;;;;23.44;54.85;93767.78;4973140;28;20421;-91
2023/06/22 00:05:39;;;;;;;14.50;11.45;;;;;;;23.44;54.97;93768.53;4973812;28;20442;-92
2023/06/22 00:08:04;;;;;;;13.98;10.45;;;;;;;23.44;54.75;93763.00;4984424;28;20512;-91
2023/06/22 00:10:30;;;;;;;14.60;11.43;;;;;;;23.44;54.69;93756.75;4986992;28;20041;-91
2023/06/22 00:12:55;;;;;;;15.88;10.95;;;;;;;23.43;54.72;93753.25;4981298;28;20046;-91
2023/06/22 00:15:21;;;;;;;16.25;12.07;;;;;;;23.42;54.99;93751.75;4986760;28;20041;-90
2023/06/22 00:17:48;;;;;;;16.92;12.13;;;;;;;23.43;55.01;93749.75;5006814;28;20041;-91
2023/06/22 00:20:14;;;;;;;15.10;11.35;;;;;;;23.43;55.13;93766.31;4979831;28;20047;-92
2023/06/22 00:22:40;;;;;;;16.08;10.98;;;;;;;23.43;54.94;93769.06;4978965;28;20141;-90
2023/06/22 00:25:06;;;;;;;13.57;10.73;;;;;;;23.42;54.80;93771.09;4992938;28;20326;-92
2023/06/22 00:27:32;;;;;;;12.85;10.32;;;;;;;23.43;55.05;93769.06;5009230;28;20049;-91
2023/06/22 00:29:57;;;;;;;15.95;11.45;;;;;;;23.42;54.93;93762.81;4993095;28;20042;-91
2023/06/22 00:32:23;;;;;;;13.80;10.63;;;;;;;23.42;54.76;93754.53;4988881;28;20038;-91
2023/06/22 00:34:48;;;;;;;12.45;9.65;;;;;;;23.41;54.93;93749.53;4992997;28;20052;-91
2023/06/22 00:37:14;;;;;;;15.00;10.70;;;;;;;23.41;54.80;93753.03;4985592;28;20042;-91
2023/06/22 00:39:39;;;;;;;11.27;9.27;;;;;;;23.40;54.89;93748.78;5010941;28;20041;-91
2023/06/22 00:42:05;;;;;;;13.50;10.23;;;;;;;23.41;55.02;93749.53;4995326;28;20057;-91
2023/06/22 00:44:30;;;;;;;12.63;9.88;;;;;;;23.39;54.80;93747.31;5008530;28;20103;-91
2023/06/22 00:46:56;;;;;;;13.65;10.35;;;;;;;23.39;54.95;93755.59;5029560;28;20029;-91
2023/06/22 00:49:21;;;;;;;12.05;9.98;;;;;;;23.41;54.61;93755.06;5000920;28;20049;-91
2023/06/22 00:51:47;;;;;;;13.55;9.45;;;;;;;23.39;54.82;93746.56;4998602;28;20042;-91
2023/06/22 00:54:13;;;;;;;13.85;10.55;;;;;;;23.39;54.94;93730.03;4980159;28;20412;-91
2023/06/22 00:56:40;;;;;;;12.43;9.73;;;;;;;23.37;54.70;93733.34;5003253;28;20496;-90
2023/06/22 00:59:05;;;;;;;13.10;9.90;;;;;;;23.37;54.63;93732.59;4971498;28;20068;-91
2023/06/22 01:01:32;;;;;;;14.73;10.25;;;;;;;23.37;54.88;93740.88;5009063;28;20057;-92
2023/06/22 01:03:58;;;;;;;14.90;10.27;;;;;;;23.36;54.91;93729.09;4984987;28;20042;-91
2023/06/22 01:06:28;;;;;;;13.02;9.43;;;;;;;23.36;54.73;93734.63;4994658;28;20373;-91
2023/06/22 01:09:01;;;;;;;13.95;9.05;;;;;;;23.35;54.80;93727.63;4966512;28;20126;-90
2023/06/22 01:11:31;;;;;;;15.25;9.73;;;;;;;23.35;54.83;93721.34;4973997;28;20045;-91
2023/06/22 01:13:57;;;;;;;;;;;;;;;23.36;54.83;93712.53;5005329;28;20498;-91
2023/06/22 01:16:24;;;;;;;13.70;9.70;;;;;;;23.35;54.77;93705.53;5018781;28;20016;-90
2023/06/22 01:18:51;;;;;;;13.25;8.23;;;;;;;23.34;54.74;93717.84;5008031;28;20034;-91
2023/06/22 01:21:18;;;;;;;13.10;10.23;;;;;;;23.33;54.81;93710.84;4974918;28;20062;-91
2023/06/22 01:23:56;;;;;;;10.05;8.70;;;;;;;23.34;55.03;93703.31;4998669;28;20034;-91
2023/06/22 01:26:30;;;;;;;11.07;8.70;;;;;;;23.33;54.74;93694.31;5009970;28;20149;-92
2023/06/22 01:28:56;;;;;;;11.77;8.52;;;;;;;23.34;54.65;93711.59;5013121;28;20435;-92
2023/06/22 01:31:26;;;;;;;11.00;8.45;;;;;;;23.33;54.56;93708.09;4989210;28;20144;-91
2023/06/22 01:33:54;;;;;;;11.30;9.40;;;;;;;23.33;54.54;93718.38;4974638;28;20042;-91
2023/06/22 01:36:20;;;;;;;10.25;8.02;;;;;;;23.32;54.83;93698.34;5007894;28;20038;-92
2023/06/22 01:38:45;;;;;;;12.73;9.27;;;;;;;23.32;54.54;93708.63;4981532;28;20320;-91
2023/06/22 01:41:11;;;;;;;13.75;9.32;;;;;;;23.33;54.53;93708.09;4998479;28;20045;-91
2023/06/22 01:43:36;;;;;;;9.38;7.55;;;;;;;23.32;54.47;93723.16;4974081;28;20374;-92
2023/06/22 01:46:02;;;;;;;12.38;8.23;;;;;;;23.31;54.69;93718.91;4976455;28;20030;-91
2023/06/22 01:48:28;;;;;;;11.38;8.18;;;;;;;23.31;54.85;93705.13;4988246;28;20053;-92
2023/06/22 01:50:54;;;;;;;7.90;6.88;;;;;;;23.31;54.59;93704.38;4989413;28;20053;-91
2023/06/22 01:53:22;;;;;;;11.13;7.97;;;;;;;23.31;54.50;93696.13;4974970;28;20097;-91
2023/06/22 01:55:48;;;;;;;11.70;7.93;;;;;;;23.30;54.74;93698.13;4985147;28;20038;-91
2023/06/22 01:58:13;;;;;;;10.63;7.20;;;;;;;23.30;54.52;93687.09;4974321;28;20089;-90
2023/06/22 02:00:39;;;;;;;10.20;7.97;;;;;;;23.30;54.59;93689.13;5001749;28;20042;-90
2023/06/22 02:03:13;;;;;;;10.15;7.07;;;;;;;23.30;54.67;93689.13;4975994;28;20042;-91
2023/06/22 02:05:42;;;;;;;10.23;7.90;;;;;;;23.30;54.76;93684.34;4991235;28;20171;-91
2023/06/22 02:08:22;;;;;;;9.23;7.87;;;;;;;23.29;54.89;93691.13;4973927;28;20050;-91
2023/06/22 02:10:48;;;;;;;8.63;7.35;;;;;;;23.30;54.63;93691.88;4962393;28;20038;-91
2023/06/22 02:13:14;;;;;;;10.57;8.15;;;;;;;23.29;54.65;93691.13;4989976;28;20079;-91
2023/06/22 02:15:39;;;;;;;10.20;7.88;;;;;;;23.29;54.59;93688.38;4972083;28;20397;-91
2023/06/22 02:18:05;;;;;;;10.50;7.10;;;;;;;23.28;54.76;93673.09;4976743;28;20386;-91
2023/06/22 02:20:30;;;;;;;10.98;8.00;;;;;;;23.27;54.50;93666.09;4973884;28;20045;-91
2023/06/22 02:22:55;;;;;;;9.23;6.95;;;;;;;23.27;54.43;93662.59;4975124;28;20489;-90
2023/06/22 02:25:21;;;;;;;12.55;8.00;;;;;;;23.27;54.84;93662.59;4973904;28;20042;-91
2023/06/22 02:27:47;;;;;;;10.55;7.93;;;;;;;23.28;54.71;93661.31;4970841;28;20074;-91
2023/06/22 02:30:12;;;;;;;9.55;7.07;;;;;;;23.28;54.79;93653.03;4974631;28;20366;-91
2023/06/22 02:32:41;;;;;;;9.73;7.32;;;;;;;23.29;54.43;93651.78;4991245;28;20038;-91
2023/06/22 02:35:08;;;;;;;10.48;7.97;;;;;;;23.27;54.61;93657.09;4974223;28;20096;-92
2023/06/22 02:37:33;;;;;;;9.65;7.25;;;;;;;23.27;54.29;93654.31;4956297;28;20129;-91
2023/06/22 02:39:59;;;;;;;9.25;7.63;;;;;;;23.26;54.68;93656.34;4956007;28;20061;-91
2023/06/22 02:42:24;;;;;;;10.63;7.00;;;;;;;23.26;54.35;93656.34;4965742;28;20408;-91
2023/06/22 02:44:49;;;;;;;9.25;7.57;;;;;;;23.25;54.59;93657.63;4974305;28;20560;-91
2023/06/22 02:47:15;;;;;;;12.20;7.43;;;;;;;23.26;54.22;93642.53;4974635;28;20687;-91
2023/06/22 02:49:41;;;;;;;10.60;6.93;;;;;;;23.26;54.43;93659.09;4979566;28;20429;-91
2023/06/22 02:52:07;;;;;;;9.90;7.90;;;;;;;23.25;54.74;93663.13;4966587;28;20096;-90
2023/06/22 02:54:33;;;;;;;7.90;6.57;;;;;;;23.25;54.59;93665.88;4971871;28;20042;-91
2023/06/22 02:57:02;;;;;;;7.72;6.90;;;;;;;23.25;54.34;93668.66;4973447;28;20480;-91
2023/06/22 02:59:28;;;;;;;10.18;7.35;;;;;;;23.24;54.52;93670.66;5000401;28;20095;-91
2023/06/22 03:01:53;;;;;;;8.95;7.28;;;;;;;23.23;54.42;93666.44;5009408;28;20050;-91
2023/06/22 03:04:18;;;;;;;6.88;5.15;;;;;;;23.25;54.21;93663.88;4989187;28;20066;-91
2023/06/22 03:06:44;;;;;;;9.40;6.38;;;;;;;23.24;54.59;93664.41;4993505;28;20034;-91
2023/06/22 03:09:10;;;;;;;8.68;6.40;;;;;;;23.23;54.50;93663.66;4974567;28;20049;-90
2023/06/22 03:11:35;;;;;;;10.70;6.68;;;;;;;23.24;54.79;93665.16;4992661;28;20492;-91
2023/06/22 03:14:01;;;;;;;11.77;7.38;;;;;;;23.23;54.59;93669.19;5005059;28;20053;-91
2023/06/22 03:16:26;;;;;;;10.65;7.10;;;;;;;23.24;54.43;93665.16;4972087;28;20336;-92
2023/06/22 03:18:53;;;;;;;11.15;7.18;;;;;;;23.23;54.49;93660.91;4981940;28;20696;-90
2023/06/22 03:21:19;;;;;;;9.45;7.65;;;;;;;23.23;54.61;93671.94;4972666;28;20552;-91
2023/06/22 03:23:44;;;;;;;8.43;6.85;;;;;;;23.23;54.31;93663.66;4973897;28;20030;-91
2023/06/22 03:26:11;;;;;;;8.50;6.78;;;;;;;23.24;54.57;93678.19;4973301;28;20042;-91
2023/06/22 03:28:37;;;;;;;9.18;6.47;;;;;;;23.23;54.57;93677.47;4990897;28;20045;-90
2023/06/22 03:31:03;;;;;;;10.25;6.68;;;;;;;23.25;54.31;93671.41;4988490;28;20070;-90
2023/06/22 03:33:29;;;;;;;37.35;30.40;;;;;;;23.22;54.32;93672.47;4992215;28;20111;-90
2023/06/22 03:35:54;;;;;;;9.15;8.02;;;;;;;23.25;54.34;93665.88;4995308;28;20159;-91
2023/06/22 03:38:20;;;;;;;11.23;7.60;;;;;;;23.27;54.20;93665.34;4993843;28;20083;-91
2023/06/22 03:40:47;;;;;;;13.77;9.07;;;;;;;23.28;54.21;93659.31;4991250;28;20042;-90
2023/06/22 03:43:12;;;;;;;31.05;24.27;;;;;;;23.25;53.88;93652.84;4988792;28;20096;-92
2023/06/22 03:45:37;;;;;;;15.25;9.77;;;;;;;23.19;53.67;93654.97;4972483;28;20037;-92
2023/06/22 03:48:06;;;;;;;26.42;20.77;;;;;;;23.21;53.36;93657.19;5003748;28;20052;-95
2023/06/22 03:50:31;;;;;;;13.70;8.70;;;;;;;23.07;52.92;93662.03;4981942;28;20457;-91
2023/06/22 03:52:57;;;;;;;10.13;5.53;;;;;;;22.88;52.22;93672.50;4992365;28;20038;-90
2023/06/22 03:55:22;;;;;;;10.93;4.95;;;;;;;22.69;52.53;93677.38;5014280;28;20037;-90
2023/06/22 03:57:47;;;;;;;12.93;5.05;;;;;;;22.57;52.71;93674.84;4981539;28;20045;-91
2023/06/22 04:00:15;;;;;;;14.25;5.63;;;;;;;22.47;53.00;93681.31;4995789;28;20041;-90
2023/06/22 04:02:41;;;;;;;9.98;4.30;;;;;;;22.40;53.51;93679.94;4955791;28;20155;-89
2023/06/22 04:05:06;;;;;;;8.23;5.07;;;;;;;22.32;53.71;93687.34;4984108;28;20034;-90
2023/06/22 04:07:32;;;;;;;16.27;5.15;;;;;;;22.21;53.98;93688.31;4997607;28;20049;-93
2023/06/22 04:09:58;;;;;;;24.25;7.13;;;;;;;22.12;54.42;93687.97;4996705;28;20042;-92
2023/06/22 04:12:24;;;;;;;17.17;5.45;;;;;;;22.12;54.51;93677.72;5009699;28;20045;-91
2023/06/22 04:14:50;;;;;;;22.00;7.40;;;;;;;22.02;55.27;93673.91;5002162;28;20048;-91
2023/06/22 04:17:17;;;;;;;26.38;8.65;;;;;;;21.89;55.74;93673.84;4981540;28;20438;-90
2023/06/22 04:19:43;;;;;;;33.38;13.65;;;;;;;21.83;55.92;93660.22;4989759;28;20119;-92
2023/06/22 04:22:09;;;;;;;46.95;8.90;;;;;;;21.85;56.52;93665.19;4974162;28;20501;-91
2023/06/22 04:24:35;;;;;;;22.48;8.55;;;;;;;21.80;56.55;93661.25;4996012;28;20045;-91
2023/06/22 04:27:02;;;;;;;26.00;8.70;;;;;;;21.81;56.87;93662.00;4990224;28;20738;-93
2023/06/22 04:29:29;;;;;;;13.90;6.03;;;;;;;21.73;57.62;93655.63;5004038;28;20061;-92
2023/06/22 04:32:05;;;;;;;13.93;8.25;;;;;;;21.64;57.91;93653.31;4992775;28;20049;-91
2023/06/22 04:34:30;;;;;;;26.60;9.40;;;;;;;21.62;58.17;93662.06;5012760;28;20033;-90
2023/06/22 04:36:58;;;;;;;20.75;9.85;;;;;;;21.75;58.01;93651.09;4994631;28;20034;-92
2023/06/22 04:39:34;;;;;;;27.73;12.63;;;;;;;21.82;57.59;93642.22;4989233;28;20042;-92
2023/06/22 04:42:08;;;;;;;27.83;14.82;;;;;;;21.80;57.83;93636.50;4993826;28;20026;-92
2023/06/22 04:44:36;;;;;;;24.15;12.05;;;;;;;21.95;57.50;93643.47;4967355;28;20073;-92
2023/06/22 04:47:11;;;;;;;32.53;18.70;;;;;;;21.94;57.85;93636.50;5026678;28;20100;-92
2023/06/22 04:49:50;;;;;;;21.43;11.37;;;;;;;21.98;57.67;93639.69;5011398;28;20038;-92
2023/06/22 04:52:17;;;;;;;23.65;12.20;;;;;;;22.08;57.67;93633.25;5043373;23;20057;-92
2023/06/22 04:54:55;;;;;;;22.27;9.57;;;;;;;22.07;57.92;93631.03;4959155;28;20038;-92
2023/06/22 04:57:34;;;;;;;16.25;8.27;;;;;;;22.14;57.97;93630.38;4934368;28;20049;-92
2023/06/22 05:00:19;;;;;;;14.77;7.20;;;;;;;22.13;58.23;93624.13;4970852;28;20046;-91
2023/06/22 05:02:56;;;;;;;17.27;8.15;;;;;;;22.13;58.28;93621.38;4985264;28;20077;-92
2023/06/22 05:05:33;;;;;;;22.02;9.90;;;;;;;22.17;58.36;93630.06;4944570;28;20035;-92
2023/06/22 05:08:01;;;;;;;20.08;9.35;;;;;;;22.22;58.38;93636.75;4949503;28;20043;-92
2023/06/22 05:10:44;;;;;;;13.32;7.25;;;;;;;22.27;58.27;93638.66;4917803;28;20039;-92
2023/06/22 05:13:21;;;;;;;16.52;6.38;;;;;;;22.25;58.71;93630.19;4922078;28;20086;-91
2023/06/22 05:16:01;;;;;;;21.13;10.15;;;;;;;22.29;58.47;93627.84;4965955;28;20106;-91
2023/06/22 05:18:38;;;;;;;28.27;10.32;;;;;;;22.31;58.76;93627.28;4893861;29;20039;-91
2023/06/22 05:21:06;;;;;;;61.67;33.97;;;;;;;22.32;58.70;93628.78;4901847;28;20046;-93
2023/06/22 05:23:34;;;;;;;78.05;45.63;;;;;;;22.37;58.54;93614.91;4955692;28;20683;-93
2023/06/22 05:26:01;;;;;;;91.93;55.22;;;;;;;22.38;58.51;93616.38;4954945;28;20046;-91
2023/06/22 05:28:28;;;;;;;76.50;41.33;;;;;;;22.45;58.25;93620.50;5013704;28;20047;-91
2023/06/22 05:30:54;;;;;;;59.03;30.08;;;;;;;22.47;58.00;93628.97;4992574;28;20042;-91
2023/06/22 05:33:19;;;;;;;57.55;28.23;;;;;;;22.48;58.39;93617.44;4960065;28;20056;-90
2023/06/22 05:35:45;;;;;;;49.08;24.58;;;;;;;22.54;57.96;93618.03;4981124;28;20069;-91
2023/06/22 05:38:12;;;;;;;42.90;23.45;;;;;;;22.56;58.02;93620.25;4991135;28;20048;-91
2023/06/22 05:40:42;;;;;;;69.25;40.60;;;;;;;22.67;57.85;93617.28;4999775;28;20053;-92
2023/06/22 05:43:11;;;;;;;76.85;40.88;;;;;;;22.73;57.73;93614.41;5026960;22;20050;-90
2023/06/22 05:45:38;;;;;;;73.28;40.75;;;;;;;22.70;58.10;93609.97;5010894;28;20042;-91
2023/06/22 05:48:06;;;;;;;63.13;36.17;;;;;;;22.74;58.15;93602.84;4993789;28;20060;-88
2023/06/22 05:50:31;;;;;;;99.60;41.55;;;;;;;22.76;58.02;93607.81;4977885;28;20038;-91
2023/06/22 05:52:59;;;;;;;61.00;34.05;;;;;;;22.81;57.96;93610.47;4996116;23;20032;-91
2023/06/22 05:55:25;;;;;;;62.28;36.22;;;;;;;22.81;57.98;93613.22;5051008;22;20048;-88
2023/06/22 05:57:53;;;;;;;61.83;33.90;;;;;;;22.88;57.84;93612.59;5003939;28;20038;-91
2023/06/22 06:00:30;;;;;;;59.40;32.45;;;;;;;22.94;57.76;93606.94;4982256;28;20394;-90
2023/06/22 06:03:01;;;;;;;52.75;28.75;;;;;;;23.02;57.70;93610.50;5021341;28;20064;-89
2023/06/22 06:05:27;;;;;;;51.58;31.08;;;;;;;23.04;57.70;93607.22;4991317;28;20042;-91
2023/06/22 06:07:52;;;;;;;69.13;38.22;;;;;;;23.05;57.74;93605.94;4997438;28;20049;-88
2023/06/22 06:10:18;;;;;;;57.38;36.63;;;;;;;23.11;57.45;93606.56;4990964;28;20038;-88
2023/06/22 06:12:43;;;;;;;45.58;29.35;;;;;;;23.04;57.80;93613.47;4994673;28;20141;-89
2023/06/22 06:15:09;;;;;;;48.67;30.98;;;;;;;23.07;57.78;93609.66;4992760;28;20042;-90
2023/06/22 06:17:34;;;;;;;50.97;34.45;;;;;;;23.07;57.93;93614.41;4965635;28;20040;-90
2023/06/22 06:20:00;;;;;;;79.55;48.97;;;;;;;23.03;57.92;93608.50;4990499;28;20626;-89
2023/06/22 06:22:26;;;;;;;65.88;40.75;;;;;;;23.10;57.95;93613.34;4989001;28;20042;-91
2023/06/22 06:24:55;;;;;;;60.40;37.38;;;;;;;23.02;57.74;93612.53;4978492;28;20424;-91
2023/06/22 06:27:21;;;;;;;52.20;32.17;;;;;;;23.15;57.79;93612.47;4966221;28;20061;-90
2023/06/22 06:29:49;;;;;;;47.42;26.85;;;;;;;23.11;57.66;93612.81;5009336;28;20137;-92
2023/06/22 06:32:17;;;;;;;39.10;23.73;;;;;;;23.09;58.02;93617.38;4958284;28;20129;-92
2023/06/22 06:34:43;;;;;;;48.17;25.90;;;;;;;23.13;57.92;93606.75;4954204;28;20031;-91
2023/06/22 06:37:08;;;;;;;42.85;24.80;;;;;;;23.28;57.64;93611.66;4989760;28;20447;-93
2023/06/22 06:39:35;;;;;;;75.63;33.88;;;;;;;23.17;57.71;93612.66;4996571;28;20411;-92
2023/06/22 06:42:00;;;;;;;68.88;32.83;;;;;;;23.16;57.59;93609.19;5004055;28;20046;-89
2023/06/22 06:44:26;;;;;;;58.72;30.48;;;;;;;23.22;57.49;93607.03;4965088;28;20501;-90
2023/06/22 06:46:51;;;;;;;56.70;30.40;;;;;;;23.22;57.45;93600.75;4974102;28;20041;-91
2023/06/22 06:49:17;;;;;;;71.40;40.10;;;;;;;23.37;57.26;93597.41;4993277;28;20041;-91
2023/06/22 06:51:43;;;;;;;55.13;32.38;;;;;;;23.33;57.23;93585.97;4982339;28;20447;-91
2023/06/22 06:54:09;;;;;;;67.90;37.97;;;;;;;23.42;56.99;93593.75;4991373;28;20075;-94
2023/06/22 06:56:36;;;;;;;70.57;40.72;;;;;;;23.32;57.32;93592.78;4983993;28;20442;-91
2023/06/22 06:59:01;;;;;;;84.55;42.08;;;;;;;23.36;57.61;93604.22;4969908;28;20526;-89
2023/06/22 07:01:27;;;;;;;134.32;52.10;;;;;;;23.44;57.17;93594.69;5003872;28;20277;-92
2023/06/22 07:03:53;;;;;;;98.28;47.85;;;;;;;23.40;57.30;93591.53;4982959;28;20120;-92
2023/06/22 07:06:22;;;;;;;90.95;42.70;;;;;;;23.38;57.33;93596.13;5001063;28;20462;-93
2023/06/22 07:08:47;;;;;;;99.75;47.67;;;;;;;23.41;57.18;93589.53;4994534;28;20050;-92
2023/06/22 07:11:13;;;;;;;90.90;48.17;;;;;;;23.42;57.51;93583.47;5007103;28;20124;-93
2023/06/22 07:13:38;;;;;;;129.68;56.95;;;;;;;23.46;56.94;93583.88;4987383;28;20095;-94
2023/06/22 07:16:14;;;;;;;127.70;59.03;;;;;;;23.49;56.74;93585.56;4976204;28;20042;-93
2023/06/22 07:18:40;;;;;;;117.10;57.35;;;;;;;23.58;56.69;93589.88;4995516;28;20096;-93
2023/06/22 07:21:06;;;;;;;117.20;56.78;;;;;;;23.53;56.78;93585.25;4993663;28;20500;-94
2023/06/22 07:23:34;;;;;;;129.20;59.45;;;;;;;23.55;56.69;93582.69;4976104;28;20778;-93
2023/06/22 07:26:06;;;;;;;146.13;65.70;;;;;;;23.59;56.69;93580.31;4995895;28;20037;-91
2023/06/22 07:28:36;;;;;;;161.82;70.18;;;;;;;23.57;56.68;93571.84;4996688;28;20038;-92
2023/06/22 07:31:09;;;;;;;142.30;63.70;;;;;;;23.60;56.57;93576.25;4999326;28;20034;-94
2023/06/22 07:33:35;;;;;;;211.82;91.40;;;;;;;23.66;56.44;93573.38;4982824;28;20479;-92
2023/06/22 07:36:01;;;;;;;273.65;97.88;;;;;;;23.67;56.30;93572.81;4970852;28;20042;-91
2023/06/22 07:38:26;;;;;;;310.45;99.43;;;;;;;23.70;56.33;93571.00;4991556;28;20381;-91
2023/06/22 07:40:53;;;;;;;208.70;102.82;;;;;;;23.67;56.30;93567.31;4987681;28;20424;-92
2023/06/22 07:43:18;;;;;;;348.00;111.32;;;;;;;23.68;56.40;93566.03;4973923;28;20044;-91
2023/06/22 07:45:55;;;;;;;307.75;113.10;;;;;;;23.67;56.40;93567.31;4991947;28;20046;-92
2023/06/22 07:48:24;;;;;;;316.33;107.78;;;;;;;23.65;56.42;93569.13;4997024;28;20049;-92
2023/06/22 07:50:50;;;;;;;428.52;124.40;;;;;;;23.65;56.38;93569.13;4963307;28;20034;-90
2023/06/22 07:53:17;;;;;;;215.45;95.18;;;;;;;23.77;56.15;93564.81;5006633;28;20057;-92
2023/06/22 07:55:43;;;;;;;296.27;97.50;;;;;;;23.72;56.37;93569.19;4998954;28;20046;-93
2023/06/22 07:58:08;;;;;;;320.05;112.15;;;;;;;23.74;56.21;93577.66;4998487;28;20049;-90
2023/06/22 08:00:35;;;;;;;263.38;104.38;;;;;;;23.77;55.92;93573.81;4992683;28;20038;-92
2023/06/22 08:03:03;;;;;;;265.52;103.13;;;;;;;23.78;56.12;93569.78;4991467;28;20446;-90
2023/06/22 08:05:29;;;;;;;228.48;103.30;;;;;;;23.79;55.96;93579.53;4993166;28;20056;-90
2023/06/22 08:07:54;;;;;;;216.45;102.35;;;;;;;23.81;56.08;93579.00;4988436;28;20073;-90
2023/06/22 08:10:20;;;;;;;218.15;94.93;;;;;;;23.83;55.96;93574.41;5025784;28;20049;-92
2023/06/22 08:12:46;;;;;;;267.40;107.70;;;;;;;23.86;55.77;93587.13;4991360;28;20042;-90
2023/06/22 08:15:11;;;;;;;263.67;106.57;;;;;;;23.95;55.78;93585.91;4984416;28;20046;-89
2023/06/22 08:17:37;;;;;;;292.95;113.20;;;;;;;23.92;55.82;93584.97;5007409;28;20042;-92
2023/06/22 08:20:09;;;;;;;305.13;114.93;;;;;;;23.91;55.91;93586.25;5008652;28;20049;-92
2023/06/22 08:22:36;;;;;;;317.20;130.70;;;;;;;23.91;56.00;93579.97;4992738;28;20046;-93
2023/06/22 08:25:03;;;;;;;337.88;123.55;;;;;;;23.89;56.06;93580.50;4977163;28;20515;-90
2023/06/22 08:27:31;;;;;;;268.15;112.07;;;;;;;23.89;56.38;93586.03;4978380;28;20492;-92
2023/06/22 08:29:58;;;;;;;313.92;110.72;;;;;;;23.94;56.08;93581.66;4987746;28;20042;-93
2023/06/22 08:32:27;;;;;;;323.02;120.55;;;;;;;23.88;56.35;93579.03;4981921;28;20038;-92
2023/06/22 08:34:54;;;;;;;282.05;104.63;;;;;;;23.87;56.31;93585.84;4983462;28;20034;-92
2023/06/22 08:37:19;;;;;;;295.27;106.47;;;;;;;23.80;56.66;93572.75;4968261;28;20119;-93
2023/06/22 08:39:46;;;;;;;250.60;102.72;;;;;;;23.82;56.74;93578.44;4980482;28;20034;-91
2023/06/22 08:42:12;;;;;;;299.52;126.03;;;;;;;23.90;56.30;93573.72;4976731;28;20043;-91
2023/06/22 08:44:38;;;;;;;307.58;141.75;;;;;;;23.88;56.37;93572.78;4957664;28;20053;-91
2023/06/22 08:47:05;;;;;;;265.67;126.70;;;;;;;23.90;56.35;93568.19;4956196;28;20070;-93
2023/06/22 08:49:31;;;;;;;293.77;128.30;;;;;;;23.83;56.55;93571.63;4973682;28;20039;-90
2023/06/22 08:51:56;;;;;;;239.88;119.53;;;;;;;23.97;56.56;93574.31;4945469;28;20054;-92
2023/06/22 08:54:22;;;;;;;267.52;130.13;;;;;;;23.88;56.50;93570.00;4952502;28;20051;-92
2023/06/22 08:56:49;;;;;;;268.15;123.97;;;;;;;23.85;56.65;93574.59;4958360;28;20042;-92
2023/06/22 08:59:14;;;;;;;232.20;112.82;;;;;;;23.84;56.50;93569.63;4954185;28;20092;-90
2023/06/22 09:01:40;;;;;;;209.60;109.70;;;;;;;23.86;56.53;93569.81;4959657;28;20091;-92
2023/06/22 09:04:07;;;;;;;199.85;105.28;;;;;;;23.86;56.50;93567.06;4957171;28;20070;-89
2023/06/22 09:06:32;;;;;;;181.77;96.57;;;;;;;23.84;56.51;93566.84;4952417;28;20042;-87
2023/06/22 09:09:01;;;;;;;213.35;98.97;;;;;;;23.89;56.57;93568.72;4970619;28;20054;-90
2023/06/22 09:11:27;;;;;;;198.35;97.13;;;;;;;23.86;56.59;93567.06;4973345;28;20042;-89
2023/06/22 09:13:53;;;;;;;198.35;95.50;;;;;;;23.89;56.60;93565.97;4945561;28;20053;-91
2023/06/22 09:16:20;;;;;;;208.48;94.43;;;;;;;23.99;56.51;93566.97;4965571;28;20397;-89
2023/06/22 09:18:48;;;;;;;194.50;96.13;;;;;;;23.90;56.59;93559.16;4952349;28;20038;-90
2023/06/22 09:21:14;;;;;;;213.27;97.20;;;;;;;23.84;56.69;93562.06;4988591;28;20049;-88
2023/06/22 09:23:39;;;;;;;227.20;101.72;;;;;;;23.91;56.51;93564.16;4991552;28;20093;-89
2023/06/22 09:26:05;;;;;;;201.98;96.05;;;;;;;23.91;56.54;93555.13;5002193;28;20039;-88
2023/06/22 09:28:31;;;;;;;218.55;103.25;;;;;;;23.93;56.73;93563.59;4966508;28;20038;-89
2023/06/22 09:30:58;;;;;;;217.60;111.35;;;;;;;23.98;56.49;93559.97;4990147;28;20045;-88
2023/06/22 09:33:24;;;;;;;197.38;98.28;;;;;;;23.94;56.32;93554.03;4975627;28;20046;-88
2023/06/22 09:35:53;;;;;;;199.50;98.65;;;;;;;23.88;56.76;93561.72;4998577;28;20051;-88
2023/06/22 09:38:19;;;;;;;180.52;95.97;;;;;;;23.87;56.73;93551.97;4990129;28;20061;-88
2023/06/22 09:40:45;;;;;;;175.02;90.90;;;;;;;23.99;56.49;93552.41;4976384;28;20073;-89
2023/06/22 09:43:11;;;;;;;176.90;91.43;;;;;;;23.89;56.65;93546.66;5007460;28;20508;-89
2023/06/22 09:45:37;;;;;;;136.52;72.45;;;;;;;23.93;56.50;93545.00;4987508;28;20046;-89
2023/06/22 09:48:03;;;;;;;131.68;67.57;;;;;;;24.03;56.50;93545.25;4988021;28;20049;-89
2023/06/22 09:50:29;;;;;;;119.68;67.60;;;;;;;24.11;56.51;93532.22;5003239;28;20105;-88
2023/06/22 09:52:54;;;;;;;108.95;62.45;;;;;;;24.10;56.47;93541.78;5002949;28;20045;-89
2023/06/22 09:55:21;;;;;;;107.78;61.70;;;;;;;24.17;56.29;93540.34;4990515;28;20049;-88
2023/06/22 09:57:47;;;;;;;107.35;63.38;;;;;;;24.19;56.35;93540.53;5007899;28;20049;-89
2023/06/22 10:00:13;;;;;;;105.20;60.85;;;;;;;24.20;56.43;93545.53;4968390;28;20049;-89
2023/06/22 10:02:39;;;;;;;111.45;60.28;;;;;;;24.23;56.21;93538.16;5006352;28;20046;-89
2023/06/22 10:05:05;;;;;;;104.95;61.95;;;;;;;24.31;56.07;93532.69;5007428;28;20063;-89
2023/06/22 10:07:31;;;;;;;114.35;62.95;;;;;;;24.33;56.28;93538.41;4982238;28;20102;-89
2023/06/22 10:09:56;;;;;;;102.75;61.35;;;;;;;24.36;55.79;93540.09;4988313;28;20057;-89
2023/06/22 10:12:22;;;;;;;96.78;57.53;;;;;;;24.37;55.89;93547.09;4989744;28;20045;-89
2023/06/22 10:14:47;;;;;;;86.20;53.47;;;;;;;24.46;55.83;93547.31;4962464;28;20042;-89
2023/06/22 10:17:13;;;;;;;86.65;55.10;;;;;;;24.51;55.96;93540.13;4989667;28;20038;-89
2023/06/22 10:19:38;;;;;;;89.07;51.10;;;;;;;24.52;55.98;93542.34;4973586;28;20046;-88
2023/06/22 10:22:05;;;;;;;90.60;52.45;;;;;;;24.55;55.70;93541.25;4985243;28;20056;-88
2023/06/22 10:24:31;;;;;;;79.40;47.90;;;;;;;24.59;55.77;93543.66;4973451;28;20043;-89
2023/06/22 10:26:57;;;;;;;93.57;52.17;;;;;;;24.53;55.90;93549.34;4990602;28;20049;-89
2023/06/22 10:29:22;;;;;;;73.78;46.80;;;;;;;24.57;55.79;93529.66;4976207;28;20060;-89
2023/06/22 10:31:48;;;;;;;76.22;46.60;;;;;;;24.56;56.01;93537.19;4981726;28;20046;-89
2023/06/22 10:34:13;;;;;;;75.03;44.92;;;;;;;24.57;55.97;93537.94;4973597;28;20042;-89
2023/06/22 10:36:39;;;;;;;73.97;45.30;;;;;;;24.58;55.93;93529.09;4971799;28;20048;-89
2023/06/22 10:39:05;;;;;;;67.22;44.67;;;;;;;24.59;55.87;93532.59;4976707;28;20097;-88
2023/06/22 10:41:31;;;;;;;67.07;41.65;;;;;;;24.65;55.71;93538.72;4986728;28;20050;-89
2023/06/22 10:43:56;;;;;;;78.80;43.25;;;;;;;24.62;55.77;93528.00;4995876;28;20050;-88
2023/06/22 10:46:24;;;;;;;66.85;40.35;;;;;;;24.63;55.79;93524.69;4991959;28;20046;-88
2023/06/22 10:48:50;;;;;;;63.25;42.70;;;;;;;24.56;55.93;93519.88;5006132;28;20060;-89
2023/06/22 10:51:15;;;;;;;68.88;43.72;;;;;;;24.46;56.11;93525.22;4988571;28;20631;-89
2023/06/22 10:53:41;;;;;;;67.75;40.40;;;;;;;24.47;55.99;93526.66;4983852;28;20056;-90
2023/06/22 10:56:06;;;;;;;67.10;39.83;;;;;;;24.45;56.02;93523.72;4973330;28;20042;-89
2023/06/22 10:58:32;;;;;;;70.40;41.60;;;;;;;24.36;55.96;93529.75;4987508;28;20050;-89
2023/06/22 11:00:58;;;;;;;62.85;41.08;;;;;;;24.36;56.07;93524.25;5004681;28;20050;-89
2023/06/22 11:03:24;;;;;;;63.42;43.20;;;;;;;24.41;56.07;93517.81;4991366;28;20052;-89
2023/06/22 11:05:49;;;;;;;84.10;49.97;;;;;;;24.35;56.08;93522.75;4987234;28;20043;-90
2023/06/22 11:08:15;;;;;;;122.47;55.25;;;;;;;24.40;56.10;93513.56;5000081;28;20084;-90
2023/06/22 11:10:40;;;;;;;100.68;55.67;;;;;;;24.34;56.19;93509.50;4991376;28;20049;-90
2023/06/22 11:13:09;;;;;;;83.80;53.75;;;;;;;24.36;56.37;93513.19;4977526;28;20049;-89
2023/06/22 11:15:35;;;;;;;125.88;57.17;;;;;;;24.29;56.41;93515.91;4975002;28;20050;-90